Time;durP1;ratioP1;P1;durP2;ratioP2;P2;SDS_P1;SDS_P2;PMS_P1;PMS_P2;Temp;Humidity;BMP_temperature;BMP_pressure;BME280_temperature;BME280_humidity;BME280_pressure;Samples;Min_cycle;Max_cycle;Signal;HPM_P1;HPM_P2
2023/01/18 00:00:43;;;;;;;5.10;3.40;;;-0.20;99.90;;;;;;5050550;28;20984;-70
2023/01/18 00:03:10;;;;;;;5.50;3.90;;;-0.30;99.90;;;;;;5050998;28;20425;-71
2023/01/18 00:05:39;;;;;;;5.70;2.90;;;-0.30;99.90;;;;;;5051582;28;20203;-73
2023/01/18 00:08:06;;;;;;;5.90;3.60;;;-0.30;99.90;;;;;;5051895;28;20503;-70
2023/01/18 00:10:32;;;;;;;6.90;3.33;;;-0.40;99.90;;;;;;5052000;28;20885;-71
2023/01/18 00:12:57;;;;;;;9.53;4.33;;;-0.40;99.90;;;;;;5067710;28;20440;-71
2023/01/18 00:15:23;;;;;;;7.97;4.13;;;-0.50;99.90;;;;;;5071592;28;20171;-70
2023/01/18 00:17:52;;;;;;;6.60;3.70;;;-0.50;99.90;;;;;;5071808;28;20655;-72
2023/01/18 00:20:23;;;;;;;7.63;4.03;;;-0.50;99.90;;;;;;5071928;28;20512;-70
2023/01/18 00:22:50;;;;;;;7.23;5.70;;;-0.50;99.90;;;;;;5056986;28;20417;-71
2023/01/18 00:25:16;;;;;;;8.23;4.53;;;-0.50;99.90;;;;;;5051456;28;20536;-71
2023/01/18 00:27:47;;;;;;;11.67;4.90;;;-0.50;99.90;;;;;;5050456;28;20448;-70
2023/01/18 00:30:16;;;;;;;6.37;3.87;;;-0.40;99.90;;;;;;5051655;28;20405;-71
2023/01/18 00:32:42;;;;;;;8.00;3.90;;;-0.40;99.90;;;;;;5052785;28;20459;-71
2023/01/18 00:35:07;;;;;;;5.77;3.37;;;-0.40;99.90;;;;;;5051658;28;20433;-71
2023/01/18 00:37:34;;;;;;;4.13;3.57;;;-0.40;99.90;;;;;;5051518;28;20258;-70
2023/01/18 00:39:59;;;;;;;6.30;3.53;;;-0.40;99.90;;;;;;5050249;28;20248;-70
2023/01/18 00:45:09;;;;;;;5.97;3.70;;;-0.30;99.90;;;;;;5051291;28;20256;-71
2023/01/18 00:47:34;;;;;;;4.30;3.17;;;-0.30;99.90;;;;;;5053862;28;20837;-72
2023/01/18 00:50:00;;;;;;;7.00;4.40;;;-0.30;99.90;;;;;;5055309;28;20455;-71
2023/01/18 00:52:26;;;;;;;13.10;5.30;;;-0.30;99.90;;;;;;5055495;28;20187;-72
2023/01/18 00:54:51;;;;;;;7.33;3.90;;;-0.30;99.90;;;;;;5068978;28;20698;-71
2023/01/18 00:57:17;;;;;;;9.27;4.90;;;-0.20;99.90;;;;;;5074550;28;20492;-71
2023/01/18 00:59:42;;;;;;;7.97;4.53;;;-0.20;99.90;;;;;;5074468;28;20197;-71
2023/01/18 01:02:08;;;;;;;5.47;4.07;;;-0.20;99.90;;;;;;5074867;28;20162;-71
2023/01/18 01:07:19;;;;;;;9.73;4.07;;;-0.20;99.90;;;;;;5053150;28;20214;-71
2023/01/18 01:09:45;;;;;;;6.50;4.20;;;-0.20;99.90;;;;;;5074870;28;20419;-71
2023/01/18 01:26:07;;;;;;;6.90;4.00;;;-0.10;99.90;;;;;;5054653;28;20483;-70
2023/01/18 01:28:36;;;;;;;10.27;4.23;;;-0.10;99.90;;;;;;5065207;28;20584;-71
2023/01/18 01:31:04;;;;;;;10.30;5.10;;;-0.10;99.90;;;;;;5058026;28;20460;-71
2023/01/18 01:33:30;;;;;;;8.43;4.60;;;-0.10;99.90;;;;;;5054679;28;20413;-71
2023/01/18 01:35:57;;;;;;;7.47;4.27;;;-0.10;99.90;;;;;;5054282;28;20507;-71
2023/01/18 01:38:23;;;;;;;8.13;4.93;;;-0.10;99.90;;;;;;5054441;28;21000;-72
2023/01/18 01:41:07;;;;;;;6.90;4.73;;;-0.10;99.90;;;;;;5054783;28;20517;-72
2023/01/18 01:43:49;;;;;;;8.50;4.83;;;-0.10;99.90;;;;;;5054482;28;20186;-71
2023/01/18 01:46:37;;;;;;;8.70;5.57;;;0.00;99.90;;;;;;5054116;28;20536;-72
2023/01/18 01:49:09;;;;;;;8.80;4.83;;;0.00;99.90;;;;;;5054211;28;20405;-71
2023/01/18 01:51:38;;;;;;;8.37;4.60;;;0.00;99.90;;;;;;5060225;28;20475;-72
2023/01/18 01:54:09;;;;;;;11.33;4.83;;;0.00;99.90;;;;;;5074281;28;20471;-71
2023/01/18 01:56:34;;;;;;;10.90;5.00;;;0.00;99.90;;;;;;5074024;28;20916;-70
2023/01/18 01:59:01;;;;;;;6.83;4.60;;;0.00;99.90;;;;;;5073747;28;20436;-70
2023/01/18 02:01:28;;;;;;;7.07;4.53;;;0.00;99.90;;;;;;5069464;28;20203;-71
2023/01/18 02:03:57;;;;;;;12.10;5.50;;;0.00;99.90;;;;;;5054051;28;20416;-71
2023/01/18 02:06:30;;;;;;;7.40;4.97;;;0.00;99.90;;;;;;5052404;28;20873;-71
2023/01/18 02:08:59;;;;;;;7.13;4.57;;;0.00;99.90;;;;;;5053992;28;20487;-71
2023/01/18 02:11:25;;;;;;;14.00;5.10;;;0.00;99.90;;;;;;5053894;28;21053;-72
2023/01/18 02:13:52;;;;;;;9.27;4.53;;;0.00;99.90;;;;;;5061598;28;20416;-72
2023/01/18 02:16:31;;;;;;;11.53;5.07;;;0.00;99.90;;;;;;5073286;28;20483;-71
2023/01/18 02:19:23;;;;;;;7.83;4.93;;;-0.10;99.90;;;;;;5073784;28;20408;-71
2023/01/18 02:22:07;;;;;;;11.93;4.83;;;-0.10;99.90;;;;;;5089380;28;20422;-71
2023/01/18 02:25:01;;;;;;;6.40;4.70;;;-0.10;99.90;;;;;;5073498;28;20415;-70
2023/01/18 02:27:42;;;;;;;13.10;5.03;;;-0.10;99.90;;;;;;5069023;28;20455;-71
2023/01/18 02:30:16;;;;;;;6.83;5.60;;;-0.10;99.90;;;;;;5053648;28;20879;-71
2023/01/18 02:32:49;;;;;;;12.70;5.27;;;-0.10;99.90;;;;;;5068935;28;20415;-70
2023/01/18 02:35:51;;;;;;;16.57;5.50;;;-0.10;99.90;;;;;;5053355;28;20409;-70
2023/01/18 02:38:32;;;;;;;8.03;5.53;;;-0.10;99.90;;;;;;5053639;28;20946;-71
2023/01/18 02:41:15;;;;;;;8.40;4.20;;;-0.10;99.90;;;;;;5053444;28;20452;-70
2023/01/18 02:46:35;;;;;;;8.27;4.87;;;-0.10;99.90;;;;;;5053036;28;20455;-71
2023/01/18 02:49:17;;;;;;;10.63;6.17;;;-0.20;99.90;;;;;;5053754;28;20498;-71
2023/01/18 02:51:42;;;;;;;13.33;6.03;;;-0.20;99.90;;;;;;5073239;28;20436;-71
2023/01/18 02:54:10;;;;;;;11.60;6.30;;;-0.20;99.90;;;;;;5073086;28;20462;-71
2023/01/18 02:56:46;;;;;;;14.27;7.23;;;-0.20;99.90;;;;;;5072555;28;20166;-71
2023/01/18 02:59:33;;;;;;;10.20;5.00;;;-0.20;99.90;;;;;;5073050;28;20408;-71
2023/01/18 03:02:04;;;;;;;6.77;5.47;;;-0.20;99.90;;;;;;5064988;28;20479;-71
2023/01/18 03:04:38;;;;;;;16.00;7.40;;;-0.20;99.90;;;;;;5052570;28;20914;-71
2023/01/18 03:07:18;;;;;;;8.43;5.77;;;-0.20;99.90;;;;;;5052777;28;20456;-72
2023/01/18 03:09:45;;;;;;;14.00;6.77;;;-0.20;99.90;;;;;;5052152;28;20813;-72
2023/01/18 03:12:44;;;;;;;11.37;5.30;;;-0.20;99.90;;;;;;5052815;28;20408;-72
2023/01/18 03:15:37;;;;;;;9.40;6.07;;;-0.20;99.90;;;;;;5067843;28;20436;-72
2023/01/18 03:18:37;;;;;;;14.27;6.60;;;-0.20;99.90;;;;;;5067330;28;20479;-71
2023/01/18 03:21:06;;;;;;;12.90;6.10;;;-0.20;99.90;;;;;;5072436;28;20393;-72
2023/01/18 03:23:39;;;;;;;13.23;7.73;;;-0.20;99.90;;;;;;5072914;28;20941;-72
2023/01/18 03:26:10;;;;;;;14.10;8.33;;;-0.20;99.90;;;;;;5065257;28;20449;-71
2023/01/18 03:34:32;;;;;;;14.30;6.10;;;-0.20;99.90;;;;;;5053536;28;20789;-71
2023/01/18 03:37:01;;;;;;;14.53;5.97;;;-0.20;99.90;;;;;;5072240;28;20424;-71
2023/01/18 03:39:33;;;;;;;12.77;6.70;;;-0.20;99.90;;;;;;5072240;28;20423;-71
2023/01/18 03:42:02;;;;;;;9.77;6.10;;;-0.20;99.90;;;;;;5072286;28;20503;-71
2023/01/18 03:44:38;;;;;;;13.33;7.17;;;-0.20;99.90;;;;;;5071148;28;20412;-71
2023/01/18 03:47:05;;;;;;;14.00;7.90;;;-0.20;99.90;;;;;;5058224;28;20988;-71
2023/01/18 03:49:33;;;;;;;10.50;5.83;;;-0.20;99.90;;;;;;5072089;28;20420;-71
2023/01/18 03:52:36;;;;;;;10.73;7.40;;;-0.20;99.90;;;;;;5072097;28;20531;-70
2023/01/18 03:55:32;;;;;;;17.43;7.50;;;-0.30;99.90;;;;;;5072001;28;20385;-70
2023/01/18 03:58:06;;;;;;;9.63;6.77;;;-0.30;99.90;;;;;;5058553;28;20870;-70
2023/01/18 04:00:31;;;;;;;10.33;5.50;;;-0.30;99.90;;;;;;5050736;28;20752;-70
2023/01/18 04:02:57;;;;;;;10.77;5.73;;;-0.30;99.90;;;;;;5050650;28;20470;-70
2023/01/18 04:05:24;;;;;;;11.77;6.57;;;-0.30;99.90;;;;;;5051594;28;20191;-71
2023/01/18 04:07:49;;;;;;;11.53;5.93;;;-0.30;99.90;;;;;;5050368;28;20518;-71
2023/01/18 04:10:15;;;;;;;20.00;6.10;;;-0.20;99.90;;;;;;5067108;28;20423;-71
2023/01/18 04:12:40;;;;;;;9.10;5.70;;;-0.20;99.90;;;;;;5071833;28;20169;-72
2023/01/18 04:15:06;;;;;;;19.37;8.57;;;-0.20;99.90;;;;;;5071499;28;20671;-72
2023/01/18 04:17:32;;;;;;;11.40;7.47;;;-0.20;99.90;;;;;;5070455;28;20189;-72
2023/01/18 04:19:57;;;;;;;12.80;7.10;;;-0.20;99.90;;;;;;5071904;28;20491;-71
2023/01/18 04:22:23;;;;;;;11.60;5.60;;;-0.20;99.90;;;;;;5058474;28;20167;-71
2023/01/18 04:24:49;;;;;;;12.37;6.97;;;-0.20;99.90;;;;;;5055815;28;20169;-71
2023/01/18 04:27:14;;;;;;;8.37;5.40;;;-0.20;99.90;;;;;;5054409;28;20206;-71
2023/01/18 04:29:40;;;;;;;13.13;6.00;;;-0.20;99.90;;;;;;5055884;28;20587;-72
2023/01/18 04:32:05;;;;;;;10.73;5.80;;;-0.20;99.90;;;;;;5055642;28;20501;-72
2023/01/18 04:34:32;;;;;;;9.07;5.33;;;-0.20;99.90;;;;;;5054731;28;20196;-70
2023/01/18 04:36:58;;;;;;;13.90;5.80;;;-0.20;99.90;;;;;;5054521;28;20190;-71
2023/01/18 04:39:23;;;;;;;11.03;6.60;;;-0.20;99.90;;;;;;5055622;28;20448;-70
2023/01/18 04:41:49;;;;;;;18.00;5.83;;;-0.30;99.90;;;;;;5055749;28;20704;-70
2023/01/18 04:44:15;;;;;;;15.47;6.07;;;-0.30;99.90;;;;;;5054178;28;20178;-71
2023/01/18 04:46:41;;;;;;;11.37;5.97;;;-0.30;99.90;;;;;;5073453;28;20539;-70
2023/01/18 04:49:10;;;;;;;10.43;6.50;;;-0.30;99.90;;;;;;5075574;28;20415;-70
2023/01/18 04:51:37;;;;;;;14.30;8.43;;;-0.30;99.90;;;;;;5075515;28;20154;-71
2023/01/18 04:54:03;;;;;;;13.40;7.90;;;-0.30;99.90;;;;;;5075373;28;20404;-72
2023/01/18 04:56:28;;;;;;;15.83;7.33;;;-0.30;99.90;;;;;;5075181;28;20403;-72
2023/01/18 04:58:54;;;;;;;14.27;7.17;;;-0.30;99.90;;;;;;5057487;28;20202;-72
2023/01/18 05:01:21;;;;;;;18.30;7.93;;;-0.30;99.90;;;;;;5055222;28;20246;-70
2023/01/18 05:03:46;;;;;;;12.77;7.20;;;-0.30;99.90;;;;;;5055309;28;20537;-71
2023/01/18 05:06:14;;;;;;;16.67;8.27;;;-0.30;99.90;;;;;;5054858;28;20551;-71
2023/01/18 05:08:40;;;;;;;16.00;8.27;;;-0.30;99.90;;;;;;5055541;28;20547;-71
2023/01/18 05:11:11;;;;;;;13.60;8.23;;;-0.30;99.90;;;;;;5075144;28;20431;-71
2023/01/18 05:13:37;;;;;;;13.90;8.37;;;-0.40;99.90;;;;;;5074881;28;20401;-71
2023/01/18 05:16:04;;;;;;;13.00;8.67;;;-0.30;99.90;;;;;;5074778;28;20928;-71
2023/01/18 05:18:30;;;;;;;14.07;9.03;;;-0.30;99.90;;;;;;5074997;28;20507;-71
2023/01/18 05:20:55;;;;;;;13.77;9.13;;;-0.30;99.90;;;;;;5073225;28;20401;-72
2023/01/18 05:23:22;;;;;;;15.43;8.07;;;-0.30;99.90;;;;;;5054783;28;20412;-71
2023/01/18 05:25:55;;;;;;;13.97;7.87;;;-0.30;99.90;;;;;;5054548;28;20187;-71
2023/01/18 05:28:22;;;;;;;20.53;9.57;;;-0.30;99.90;;;;;;5054639;28;20892;-71
2023/01/18 05:30:48;;;;;;;12.33;8.10;;;-0.30;99.90;;;;;;5054699;28;20768;-71
2023/01/18 05:33:15;;;;;;;15.70;8.40;;;-0.30;99.90;;;;;;5056134;28;20414;-71
2023/01/18 05:35:45;;;;;;;13.83;7.93;;;-0.30;99.90;;;;;;5074482;28;20407;-71
2023/01/18 05:38:11;;;;;;;17.17;10.00;;;-0.30;99.90;;;;;;5074437;28;20803;-71
2023/01/18 05:40:36;;;;;;;12.23;7.90;;;-0.40;99.90;;;;;;5074526;28;20520;-72
2023/01/18 05:43:02;;;;;;;18.80;9.23;;;-0.40;99.90;;;;;;5074462;28;20535;-71
2023/01/18 05:45:27;;;;;;;13.20;7.70;;;-0.40;99.90;;;;;;5070352;28;20191;-72
2023/01/18 05:47:53;;;;;;;12.43;8.97;;;-0.40;99.90;;;;;;5054367;28;20179;-72
2023/01/18 05:50:19;;;;;;;11.83;8.10;;;-0.40;99.90;;;;;;5054412;28;20159;-72
2023/01/18 05:52:45;;;;;;;10.57;8.30;;;-0.40;99.90;;;;;;5054708;28;20401;-72
2023/01/18 05:55:10;;;;;;;12.37;8.90;;;-0.40;99.90;;;;;;5054509;28;20191;-71
2023/01/18 05:57:36;;;;;;;9.57;6.27;;;-0.40;99.90;;;;;;5054190;28;20240;-71
2023/01/18 06:00:02;;;;;;;11.93;7.77;;;-0.40;99.90;;;;;;5054171;28;20159;-71
2023/01/18 06:02:27;;;;;;;10.93;6.90;;;-0.40;99.90;;;;;;5064491;28;20195;-70
2023/01/18 06:04:53;;;;;;;22.67;10.67;;;-0.40;99.90;;;;;;5053896;28;20455;-70
2023/01/18 06:07:18;;;;;;;16.03;9.20;;;-0.40;99.90;;;;;;5054023;28;20190;-72
2023/01/18 06:09:44;;;;;;;16.77;6.90;;;-0.40;99.90;;;;;;5053966;28;20166;-71
2023/01/18 06:12:09;;;;;;;12.70;7.33;;;-0.40;99.90;;;;;;5069457;28;20678;-71
2023/01/18 06:14:35;;;;;;;11.17;7.00;;;-0.40;99.90;;;;;;5073575;28;20166;-71
2023/01/18 06:17:01;;;;;;;12.47;6.83;;;-0.40;99.90;;;;;;5073883;28;20213;-72
2023/01/18 06:19:26;;;;;;;11.73;6.20;;;-0.30;99.90;;;;;;5073787;28;20178;-71
2023/01/18 06:21:53;;;;;;;11.13;7.80;;;-0.40;99.90;;;;;;5073746;28;20173;-71
2023/01/18 06:24:19;;;;;;;12.40;7.73;;;-0.30;99.90;;;;;;5056559;28;20207;-71
2023/01/18 06:26:44;;;;;;;14.73;7.57;;;-0.30;99.90;;;;;;5053528;28;20888;-71
2023/01/18 06:29:10;;;;;;;16.80;8.30;;;-0.30;99.90;;;;;;5053667;28;20474;-71
2023/01/18 06:31:35;;;;;;;14.13;8.30;;;-0.30;99.90;;;;;;5053634;28;20173;-71
2023/01/18 06:34:08;;;;;;;11.13;8.03;;;-0.30;99.90;;;;;;5053540;28;20163;-71
2023/01/18 06:36:36;;;;;;;10.20;6.23;;;-0.30;99.90;;;;;;5070764;28;20174;-71
2023/01/18 06:39:02;;;;;;;11.03;7.53;;;-0.30;99.90;;;;;;5073333;28;20420;-71
2023/01/18 06:41:28;;;;;;;9.83;7.20;;;-0.30;99.90;;;;;;5073435;28;20412;-71
2023/01/18 06:43:54;;;;;;;14.27;8.23;;;-0.30;99.90;;;;;;5073353;28;20951;-71
2023/01/18 06:46:20;;;;;;;11.53;8.00;;;-0.40;99.90;;;;;;5072960;28;20553;-71
2023/01/18 06:48:45;;;;;;;14.83;8.10;;;-0.40;99.90;;;;;;5061925;28;20620;-71
2023/01/18 06:51:11;;;;;;;14.83;6.80;;;-0.50;99.90;;;;;;5053303;28;20206;-71
2023/01/18 06:53:37;;;;;;;12.40;7.27;;;-0.50;99.90;;;;;;5053072;28;20697;-71
2023/01/18 06:56:03;;;;;;;11.43;6.80;;;-0.60;99.90;;;;;;5052917;28;20543;-71
2023/01/18 06:58:31;;;;;;;13.50;7.43;;;-0.60;99.90;;;;;;5059946;28;20440;-71
2023/01/18 07:00:58;;;;;;;12.77;7.63;;;-0.60;99.90;;;;;;5073065;28;20670;-71
2023/01/18 07:03:25;;;;;;;11.70;7.00;;;-0.60;99.90;;;;;;5072961;28;20915;-71
2023/01/18 07:05:59;;;;;;;19.73;7.57;;;-0.70;99.90;;;;;;5072470;28;20535;-71
2023/01/18 07:08:31;;;;;;;19.07;7.47;;;-0.70;99.90;;;;;;5072792;28;20420;-71
2023/01/18 07:10:58;;;;;;;14.93;8.00;;;-0.70;99.90;;;;;;5063765;28;20421;-71
2023/01/18 07:13:24;;;;;;;8.63;7.73;;;-0.80;99.90;;;;;;5051754;28;20915;-70
2023/01/18 07:15:55;;;;;;;16.37;7.53;;;-0.90;99.90;;;;;;5052551;28;20401;-70
2023/01/18 07:18:22;;;;;;;16.00;9.37;;;-0.90;99.90;;;;;;5052775;28;20930;-71
2023/01/18 07:20:56;;;;;;;12.90;9.00;;;-0.90;99.90;;;;;;5052686;28;20416;-72
2023/01/18 07:23:21;;;;;;;11.57;7.27;;;-1.00;99.90;;;;;;5065810;28;20428;-72
2023/01/18 07:25:47;;;;;;;11.37;7.93;;;-1.00;99.90;;;;;;5072191;28;20432;-71
2023/01/18 07:28:12;;;;;;;15.47;8.53;;;-0.90;99.90;;;;;;5072397;28;20186;-71
2023/01/18 07:30:38;;;;;;;15.27;7.73;;;-0.80;99.90;;;;;;5072457;28;20170;-71
2023/01/18 07:33:03;;;;;;;11.03;6.27;;;-0.80;99.90;;;;;;5072356;28;20539;-71
2023/01/18 07:35:29;;;;;;;17.23;8.57;;;-0.70;99.90;;;;;;5060018;28;20171;-72
2023/01/18 07:37:54;;;;;;;13.93;7.07;;;-0.80;99.90;;;;;;5065301;28;20235;-71
2023/01/18 07:40:21;;;;;;;17.90;8.00;;;-0.70;99.90;;;;;;5072534;28;20176;-72
2023/01/18 07:42:47;;;;;;;17.13;8.60;;;-0.90;99.90;;;;;;5072217;28;20180;-72
2023/01/18 07:45:13;;;;;;;12.03;6.87;;;-0.90;99.90;;;;;;5071919;28;20848;-72
2023/01/18 07:47:40;;;;;;;20.30;8.00;;;-0.90;99.90;;;;;;5070395;28;20543;-72
2023/01/18 07:50:06;;;;;;;14.87;7.37;;;-0.80;99.90;;;;;;5072191;28;20170;-72
2023/01/18 07:52:32;;;;;;;13.00;7.57;;;-0.80;99.90;;;;;;5070966;28;20415;-72
2023/01/18 07:54:57;;;;;;;15.07;6.43;;;-0.70;99.90;;;;;;5071553;28;20409;-72
2023/01/18 07:57:23;;;;;;;17.47;7.40;;;-0.50;99.90;;;;;;5063192;28;20732;-72
2023/01/18 07:59:49;;;;;;;8.83;6.27;;;-0.40;99.90;;;;;;5052047;28;20182;-72
2023/01/18 08:02:14;;;;;;;14.23;6.80;;;-0.20;99.90;;;;;;5050695;28;20409;-72
2023/01/18 08:04:40;;;;;;;15.67;6.37;;;0.00;99.90;;;;;;5050368;28;20171;-72
2023/01/18 08:07:07;;;;;;;14.60;7.97;;;0.10;99.90;;;;;;5061353;28;20283;-72
2023/01/18 08:09:32;;;;;;;11.27;6.87;;;0.20;99.90;;;;;;5071939;28;20920;-72
2023/01/18 08:11:59;;;;;;;16.47;8.00;;;0.40;99.90;;;;;;5071951;28;20397;-72
2023/01/18 08:14:24;;;;;;;11.83;7.03;;;0.50;99.90;;;;;;5071583;28;20182;-72
2023/01/18 08:16:50;;;;;;;15.83;8.47;;;0.60;99.90;;;;;;5064078;28;20506;-72
2023/01/18 08:19:16;;;;;;;15.57;5.77;;;0.80;99.90;;;;;;5050510;28;20502;-72
2023/01/18 08:21:42;;;;;;;16.50;7.60;;;0.80;99.90;;;;;;5051821;28;20220;-72
2023/01/18 08:24:07;;;;;;;9.63;7.23;;;0.90;99.90;;;;;;5051741;28;20175;-72
2023/01/18 08:26:33;;;;;;;14.37;7.67;;;1.00;99.90;;;;;;5058276;28;20448;-72
2023/01/18 08:28:59;;;;;;;12.80;7.50;;;1.10;99.90;;;;;;5071778;28;20706;-72
2023/01/18 08:31:25;;;;;;;14.40;7.30;;;1.20;99.90;;;;;;5071832;28;20159;-72
2023/01/18 08:33:51;;;;;;;12.77;6.37;;;1.30;99.90;;;;;;5087262;28;20418;-72
2023/01/18 08:36:20;;;;;;;9.10;6.80;;;1.40;99.90;;;;;;5066461;28;20163;-72
2023/01/18 08:38:51;;;;;;;11.30;7.97;;;1.30;99.90;;;;;;5051534;28;20897;-72
2023/01/18 08:41:17;;;;;;;14.43;7.60;;;1.40;99.90;;;;;;5051614;28;20424;-72
2023/01/18 08:43:46;;;;;;;8.83;6.80;;;1.60;99.90;;;;;;5050296;28;20424;-72
2023/01/18 08:46:11;;;;;;;14.40;7.37;;;2.00;99.90;;;;;;5051176;28;20558;-72
2023/01/18 08:48:37;;;;;;;13.50;6.70;;;2.50;99.90;;;;;;5060435;28;20444;-72
2023/01/18 08:51:03;;;;;;;9.83;8.13;;;3.10;99.90;;;;;;5069879;28;20185;-72
2023/01/18 08:53:30;;;;;;;12.27;7.17;;;3.70;99.90;;;;;;5071585;28;20260;-73
2023/01/18 08:55:56;;;;;;;11.30;7.50;;;4.50;99.90;;;;;;5071180;28;20511;-72
2023/01/18 08:58:21;;;;;;;12.70;8.73;;;5.10;99.90;;;;;;5063214;28;20461;-72
2023/01/18 09:00:49;;;;;;;11.43;6.30;;;5.50;99.90;;;;;;5050121;28;20479;-72
2023/01/18 09:03:19;;;;;;;10.43;7.10;;;5.70;99.90;;;;;;5051454;28;20167;-72
2023/01/18 09:05:44;;;;;;;11.60;7.63;;;6.10;99.90;;;;;;5050990;28;20462;-72
2023/01/18 09:08:10;;;;;;;10.20;7.10;;;6.30;99.90;;;;;;5056445;28;20843;-72
2023/01/18 09:10:36;;;;;;;11.40;8.53;;;6.30;99.90;;;;;;5075031;28;20162;-73
2023/01/18 09:13:01;;;;;;;9.60;6.70;;;6.40;99.90;;;;;;5075057;28;20424;-72
2023/01/18 09:15:28;;;;;;;12.63;6.70;;;6.50;99.90;;;;;;5074703;28;20167;-72
2023/01/18 09:17:54;;;;;;;17.57;7.47;;;6.60;99.90;;;;;;5074961;28;20543;-72
2023/01/18 09:20:20;;;;;;;8.70;7.37;;;6.90;99.90;;;;;;5071028;28;20424;-72
2023/01/18 09:22:46;;;;;;;9.43;6.83;;;7.30;99.90;;;;;;5054777;28;20178;-72
2023/01/18 09:25:12;;;;;;;8.70;6.70;;;7.60;99.90;;;;;;5053181;28;20588;-72
2023/01/18 09:27:38;;;;;;;13.60;8.00;;;8.40;99.90;;;;;;5054660;28;20425;-73
2023/01/18 09:30:05;;;;;;;8.40;7.40;;;9.30;99.90;;;;;;5054851;28;20437;-73
2023/01/18 09:32:31;;;;;;;12.97;6.90;;;10.10;99.90;;;;;;5061222;28;20158;-73
2023/01/18 09:34:56;;;;;;;11.17;6.90;;;10.70;99.90;;;;;;5073812;28;20427;-73
2023/01/18 09:37:22;;;;;;;11.67;6.70;;;11.30;99.90;;;;;;5074629;28;20190;-73
2023/01/18 09:39:48;;;;;;;13.17;7.37;;;11.90;99.90;;;;;;5073226;28;20193;-73
2023/01/18 09:42:24;;;;;;;10.33;6.47;;;12.00;92.30;;;;;;5074517;28;20166;-73
2023/01/18 09:44:54;;;;;;;8.50;6.47;;;12.20;91.20;;;;;;5067568;28;20416;-72
2023/01/18 09:47:45;;;;;;;11.57;6.63;;;12.40;90.50;;;;;;5054530;28;20452;-72
2023/01/18 09:50:19;;;;;;;10.10;7.13;;;12.50;86.90;;;;;;5046024;28;20415;-73
2023/01/18 09:53:20;;;;;;;14.87;6.70;;;12.50;80.10;;;;;;5054275;28;20462;-73
2023/01/18 09:55:55;;;;;;;15.43;7.20;;;12.40;74.80;;;;;;5054116;28;20462;-73
2023/01/18 09:59:00;;;;;;;9.10;6.83;;;12.10;71.70;;;;;;5062848;28;20425;-73
2023/01/18 10:01:30;;;;;;;6.90;6.20;;;11.70;69.10;;;;;;5053755;28;20419;-73
2023/01/18 10:04:19;;;;;;;8.90;6.93;;;11.50;70.80;;;;;;5052939;28;20828;-73
2023/01/18 10:06:55;;;;;;;9.50;6.47;;;11.40;71.50;;;;;;5053995;28;20494;-73
2023/01/18 10:09:26;;;;;;;9.30;7.60;;;11.40;74.60;;;;;;5070946;28;20413;-73
2023/01/18 10:12:39;;;;;;;9.97;7.23;;;11.40;75.90;;;;;;5074055;28;20898;-73
2023/01/18 10:15:28;;;;;;;8.60;6.27;;;11.50;73.70;;;;;;5069810;28;20419;-73
2023/01/18 10:17:56;;;;;;;7.97;6.30;;;11.40;73.80;;;;;;5073814;28;20810;-73
2023/01/18 10:20:22;;;;;;;12.60;6.43;;;11.40;73.90;;;;;;5064666;28;20487;-73
2023/01/18 10:23:08;;;;;;;8.00;6.97;;;11.30;71.70;;;;;;5052529;28;20405;-73
2023/01/18 10:26:01;;;;;;;7.10;6.40;;;11.20;70.70;;;;;;5053462;28;20183;-73
2023/01/18 10:28:38;;;;;;;13.93;7.03;;;10.60;65.80;;;;;;5053673;28;20422;-73
2023/01/18 10:31:21;;;;;;;8.30;6.00;;;10.00;65.50;;;;;;5053572;28;20448;-73
2023/01/18 10:33:54;;;;;;;9.77;6.40;;;9.60;69.00;;;;;;5071181;28;20404;-73
2023/01/18 10:36:25;;;;;;;13.73;7.07;;;9.40;70.40;;;;;;5073135;28;20937;-73
2023/01/18 10:38:53;;;;;;;8.83;6.73;;;9.00;71.10;;;;;;5073357;28;20436;-73
2023/01/18 10:41:26;;;;;;;8.33;7.13;;;8.90;73.70;;;;;;5073441;28;20895;-73
2023/01/18 10:43:52;;;;;;;15.13;7.70;;;8.90;74.80;;;;;;5073213;28;20465;-73
2023/01/18 10:46:18;;;;;;;13.27;8.80;;;8.90;75.30;;;;;;5052976;28;20946;-73
2023/01/18 10:48:52;;;;;;;12.73;6.53;;;8.90;76.10;;;;;;5056491;28;20190;-73
2023/01/18 10:51:35;;;;;;;10.80;7.50;;;9.00;76.10;;;;;;5053350;28;20486;-73
2023/01/18 10:54:22;;;;;;;11.23;7.37;;;9.40;76.70;;;;;;5053173;28;20402;-73
2023/01/18 10:56:48;;;;;;;10.13;7.03;;;9.30;74.90;;;;;;5053123;28;20437;-73
2023/01/18 10:59:28;;;;;;;10.93;7.97;;;9.60;76.30;;;;;;5059200;28;20489;-73
2023/01/18 11:01:56;;;;;;;11.87;9.23;;;10.10;75.20;;;;;;5073157;28;20397;-73
2023/01/18 11:04:26;;;;;;;18.53;9.80;;;11.20;74.60;;;;;;5072776;28;20772;-73
2023/01/18 11:06:59;;;;;;;13.77;8.80;;;12.00;69.00;;;;;;5072762;28;20455;-73
2023/01/18 11:09:42;;;;;;;9.87;7.70;;;13.00;65.60;;;;;;5072962;28;20887;-73
2023/01/18 11:12:32;;;;;;;9.30;7.23;;;13.70;61.30;;;;;;5057809;28;20922;-73
2023/01/18 11:15:13;;;;;;;12.33;9.10;;;14.20;57.60;;;;;;5051320;28;20918;-73
2023/01/18 11:17:59;;;;;;;10.73;8.50;;;15.00;55.90;;;;;;5052622;28;20512;-73
2023/01/18 11:20:35;;;;;;;7.90;6.67;;;15.10;53.50;;;;;;5052792;28;20396;-73
2023/01/18 11:23:13;;;;;;;10.77;7.33;;;15.70;53.90;;;;;;5055694;28;20408;-73
2023/01/18 11:25:51;;;;;;;10.80;8.30;;;16.80;54.00;;;;;;5072427;28;20884;-73
2023/01/18 11:28:25;;;;;;;11.93;7.60;;;17.90;51.00;;;;;;5072546;28;20495;-73
2023/01/18 11:30:58;;;;;;;9.73;6.80;;;19.20;48.90;;;;;;5071888;28;20407;-74
2023/01/18 11:33:26;;;;;;;6.77;6.10;;;21.20;48.20;;;;;;5072530;28;20397;-72
2023/01/18 11:35:54;;;;;;;8.30;6.50;;;22.20;43.50;;;;;;5061757;28;20469;-72
2023/01/18 11:38:24;;;;;;;6.50;5.77;;;23.00;42.10;;;;;;5052339;28;20515;-72
2023/01/18 11:41:04;;;;;;;9.10;5.63;;;24.00;41.00;;;;;;5052377;28;20419;-72
2023/01/18 11:43:32;;;;;;;10.00;6.40;;;24.70;37.50;;;;;;5052402;28;20898;-73
2023/01/18 11:46:16;;;;;;;9.27;6.43;;;25.50;37.40;;;;;;5051930;28;20448;-73
2023/01/18 11:49:14;;;;;;;6.93;6.17;;;25.20;33.80;;;;;;5068351;28;20569;-73
2023/01/18 11:51:48;;;;;;;8.13;6.00;;;26.60;37.90;;;;;;5063527;28;20440;-73
2023/01/18 11:54:35;;;;;;;6.23;5.50;;;26.70;32.10;;;;;;5071998;28;20494;-73
2023/01/18 11:57:01;;;;;;;6.83;5.93;;;26.00;32.50;;;;;;5072148;28;20413;-73
2023/01/18 11:59:38;;;;;;;7.77;6.80;;;25.00;31.50;;;;;;5064265;28;20413;-72
2023/01/18 12:02:35;;;;;;;7.77;7.00;;;25.00;32.50;;;;;;5051899;28;20413;-72
2023/01/18 12:05:24;;;;;;;12.43;6.97;;;23.60;31.70;;;;;;5051707;28;20397;-72
2023/01/18 12:08:16;;;;;;;7.40;6.60;;;23.50;32.90;;;;;;5062409;28;20451;-72
2023/01/18 12:10:54;;;;;;;9.33;6.20;;;23.90;33.70;;;;;;5052037;28;20767;-72
2023/01/18 12:13:23;;;;;;;8.20;5.60;;;24.70;34.40;;;;;;5050701;28;20409;-72
2023/01/18 12:16:13;;;;;;;10.47;6.50;;;25.70;33.70;;;;;;5051608;28;20788;-73
2023/01/18 12:19:06;;;;;;;6.90;5.60;;;26.30;32.10;;;;;;5056303;28;20530;-72
2023/01/18 12:21:54;;;;;;;6.63;5.87;;;27.00;32.40;;;;;;5071859;28;20401;-72
2023/01/18 12:24:32;;;;;;;11.37;5.87;;;27.60;32.00;;;;;;5071655;28;20400;-72
2023/01/18 12:27:11;;;;;;;6.97;4.97;;;27.70;30.70;;;;;;5065199;28;21134;-71
2023/01/18 12:29:47;;;;;;;5.70;5.10;;;28.30;31.00;;;;;;5051786;28;20405;-73
2023/01/18 12:32:31;;;;;;;5.43;4.93;;;28.30;29.40;;;;;;5051771;28;20393;-73
2023/01/18 12:35:15;;;;;;;6.37;5.33;;;26.80;28.80;;;;;;5050224;28;20409;-73
2023/01/18 12:37:40;;;;;;;6.63;5.30;;;25.30;29.20;;;;;;5062956;28;20485;-73
2023/01/18 12:40:27;;;;;;;5.07;4.57;;;24.20;30.00;;;;;;5071702;28;20408;-73
2023/01/18 12:43:23;;;;;;;5.03;4.40;;;23.80;30.50;;;;;;5074650;28;20170;-72
2023/01/18 12:46:07;;;;;;;5.17;3.57;;;24.30;31.80;;;;;;5075395;28;20444;-74
2023/01/18 12:48:39;;;;;;;6.43;5.00;;;25.90;33.80;;;;;;5075236;28;20855;-71
2023/01/18 12:51:11;;;;;;;4.00;3.60;;;27.30;32.30;;;;;;5055601;28;20406;-72
2023/01/18 12:54:00;;;;;;;7.07;5.40;;;28.10;30.40;;;;;;5055510;28;20401;-75
2023/01/18 12:56:39;;;;;;;8.30;3.83;;;28.60;29.70;;;;;;5055149;28;21093;-71
2023/01/18 12:59:11;;;;;;;5.63;4.70;;;29.30;29.90;;;;;;5055375;28;20480;-73
2023/01/18 13:01:43;;;;;;;12.40;3.93;;;30.10;29.50;;;;;;5065797;28;20424;-73
2023/01/18 13:04:29;;;;;;;3.70;3.40;;;30.90;30.00;;;;;;5075143;28;20397;-73
2023/01/18 13:07:01;;;;;;;5.10;4.60;;;30.90;28.30;;;;;;5075134;28;20451;-73
2023/01/18 13:09:33;;;;;;;5.73;4.00;;;30.10;27.50;;;;;;5075256;28;20928;-71
2023/01/18 13:12:02;;;;;;;6.03;3.40;;;29.90;27.60;;;;;;5075106;28;20397;-73
2023/01/18 13:15:06;;;;;;;4.50;3.60;;;30.40;29.30;;;;;;5074148;28;20439;-73
2023/01/18 13:17:40;;;;;;;4.80;4.40;;;30.50;28.30;;;;;;5074942;28;20420;-73
2023/01/18 13:20:48;;;;;;;8.97;4.40;;;29.10;26.70;;;;;;5074860;28;20397;-72
2023/01/18 13:23:52;;;;;;;4.47;4.07;;;28.40;27.60;;;;;;5074642;28;20936;-73
2023/01/18 13:26:28;;;;;;;5.00;3.87;;;29.00;29.20;;;;;;5039119;28;20543;-74
2023/01/18 13:29:18;;;;;;;5.10;4.20;;;29.40;28.90;;;;;;5054696;28;20790;-74
2023/01/18 13:31:45;;;;;;;5.50;3.90;;;29.50;28.20;;;;;;5054798;28;20819;-74
2023/01/18 13:34:27;;;;;;;4.80;3.70;;;28.70;27.00;;;;;;5054531;28;20412;-72